M I D A S
Marine Information and Data Acquisition System
Tripno 1117 of the Zeeleeuw from 2006-06-28 06:48:05 to 2006-06-28 13:31:50
Back to CruiseResearch ActivitiesStationsMapUnderway DataData graphs

EquipmentUnitsComment
TimeDGPSUTC
LatitudeDGPSDM.mWGS84
LongitudeDGPSDM.mWGS84
HeadingGyrodeg 
SOGDGPSknotsSpeed over ground
COGDGPSdegCourse over ground
DepthEcho soundermeters200 kHz
Missing or incorrect values are displayed as -999
Navigation data collected by the RV Zeeleeuw from 2006-06-28 06:48:06 to 2006-06-28 13:44:32
                                                                                    Next 1000 lines
Time Latitude Longitude Heading SOG COG Depth
2006-06-28 06:48:14 51°13.601 2°56.097 111.1 0.5 286 5.1
2006-06-28 06:48:21 51°13.602 2°56.095 111 0.6 288 5.2
2006-06-28 06:48:27 51°13.602 2°56.093 111 0.8 289 5
2006-06-28 06:48:31 51°13.603 2°56.091 111 0.9 290 5
2006-06-28 06:48:36 51°13.603 2°56.089 111.3 1.1 289 5.1
2006-06-28 06:48:41 51°13.604 2°56.086 111.7 1.3 290 5.4
2006-06-28 06:48:47 51°13.605 2°56.082 112.2 1.5 291 -999
2006-06-28 06:48:51 51°13.605 2°56.08 112.9 1.7 292 -999
2006-06-28 06:48:57 51°13.606 2°56.075 113.2 1.9 292 -999
2006-06-28 06:49:02 51°13.607 2°56.07 113.7 2.1 294 -999
2006-06-28 06:49:07 51°13.609 2°56.066 114 2.3 294 -999
2006-06-28 06:49:11 51°13.61 2°56.062 114.5 2.4 294 -999
2006-06-28 06:49:17 51°13.612 2°56.055 114.9 2.7 295 -999
2006-06-28 06:49:22 51°13.614 2°56.049 115.3 2.8 295 -999
2006-06-28 06:49:27 51°13.616 2°56.043 115.5 3 295 -999
2006-06-28 06:49:31 51°13.617 2°56.038 115.8 3.1 296 -999
2006-06-28 06:49:37 51°13.619 2°56.031 116.1 3.2 296 -999
2006-06-28 06:49:41 51°13.62 2°56.025 116.2 3.3 296 -999
2006-06-28 06:49:47 51°13.623 2°56.017 116.3 3.4 296 -999
2006-06-28 06:49:52 51°13.625 2°56.01 116.4 3.5 296 -999
2006-06-28 06:49:57 51°13.627 2°56.003 116.4 3.5 296 -999
2006-06-28 06:50:02 51°13.63 2°55.996 116.4 3.6 295 -999
2006-06-28 06:50:07 51°13.632 2°55.988 116.1 3.7 294 -999
2006-06-28 06:50:11 51°13.633 2°55.982 115.5 3.7 294 -999
2006-06-28 06:50:17 51°13.636 2°55.974 115.1 3.7 293 -999
2006-06-28 06:50:21 51°13.638 2°55.967 114.6 3.8 293 -999
2006-06-28 06:50:27 51°13.64 2°55.958 114.5 3.9 292 -999
2006-06-28 06:50:32 51°13.642 2°55.95 114.8 3.9 292 -999
2006-06-28 06:50:37 51°13.644 2°55.942 115.4 3.8 292 -999
2006-06-28 06:50:42 51°13.646 2°55.935 116.1 3.8 294 -999
2006-06-28 06:50:47 51°13.648 2°55.927 117 3.8 293 -999
2006-06-28 06:50:51 51°13.65 2°55.921 117.8 3.8 294 -999
2006-06-28 06:50:57 51°13.653 2°55.912 118.6 3.8 295 -999
2006-06-28 06:51:01 51°13.655 2°55.906 119.6 3.8 296 -999
2006-06-28 06:51:07 51°13.658 2°55.897 120.8 3.8 297 -999
2006-06-28 06:51:12 51°13.66 2°55.889 121.9 3.8 298 -999
2006-06-28 06:51:17 51°13.663 2°55.882 122.9 3.8 299 -999
2006-06-28 06:51:22 51°13.665 2°55.875 123.5 3.8 299 -999
2006-06-28 06:51:27 51°13.668 2°55.867 123.9 3.9 300 -999
2006-06-28 06:51:32 51°13.671 2°55.86 124.2 3.9 300 -999
2006-06-28 06:51:37 51°13.673 2°55.853 124.7 4 301 -999
2006-06-28 06:51:41 51°13.674 2°55.847 125.2 3.9 302 -999
2006-06-28 06:51:47 51°13.678 2°55.838 125.9 3.9 303 -999
2006-06-28 06:51:52 51°13.681 2°55.831 126.6 3.9 304 -999
2006-06-28 06:51:57 51°13.685 2°55.824 127.1 3.9 304 -999
2006-06-28 06:52:02 51°13.689 2°55.817 127.4 4 305 5.1
2006-06-28 06:52:07 51°13.692 2°55.809 127.5 4.2 305 -999
2006-06-28 06:52:11 51°13.695 2°55.803 127.5 4.2 306 -999
2006-06-28 06:52:17 51°13.699 2°55.794 127.1 4.1 306 -999
2006-06-28 06:52:22 51°13.702 2°55.787 126.6 3.9 305 -999
2006-06-28 06:52:27 51°13.705 2°55.781 125.9 3.8 305 -999
2006-06-28 06:52:31 51°13.707 2°55.776 125.4 3.6 305 -999
2006-06-28 06:52:37 51°13.709 2°55.768 124.8 3.4 304 -999
2006-06-28 06:52:42 51°13.712 2°55.762 124.3 3.3 304 4.9
2006-06-28 06:52:46 51°13.714 2°55.758 123.8 3.2 304 12.3
2006-06-28 06:52:51 51°13.716 2°55.752 123.2 3.2 304 12
2006-06-28 06:52:56 51°13.719 2°55.747 122.5 2.9 303 11.7
2006-06-28 06:52:58 51°13.719 2°55.745 121.2 2.5 303 11.3
2006-06-28 06:53:06 51°13.722 2°55.738 119.4 2.2 300 10.9
2006-06-28 06:53:11 51°13.723 2°55.735 117.5 2 300 10.9
2006-06-28 06:53:16 51°13.724 2°55.731 115.9 1.8 299 10.8
2006-06-28 06:53:21 51°13.725 2°55.728 114.1 1.4 298 10.6
2006-06-28 06:53:25 51°13.726 2°55.727 112 1.2 295 10.4
2006-06-28 06:53:31 51°13.727 2°55.724 109.5 1 297 10.4
2006-06-28 06:53:35 51°13.728 2°55.723 106.5 0.7 300 10.3
2006-06-28 06:53:40 51°13.729 2°55.722 103.5 0.6 305 10.2
2006-06-28 06:53:47 51°13.729 2°55.721 100.5 0.4 318 10.1
2006-06-28 06:53:51 51°13.73 2°55.722 97.4 0.3 357 10
2006-06-28 06:53:56 51°13.73 2°55.722 93.9 0.3 37 5
2006-06-28 06:54:01 51°13.73 2°55.723 90 0.5 56 10.2
2006-06-28 06:54:06 51°13.73 2°55.724 85.8 0.6 60 10.2
2006-06-28 06:54:10 51°13.731 2°55.725 81.4 0.8 60 10.2
2006-06-28 06:54:15 51°13.732 2°55.727 76.7 0.8 50 10.1
2006-06-28 06:54:22 51°13.733 2°55.728 71.9 0.8 50 10.1
2006-06-28 06:54:26 51°13.733 2°55.729 68.9 0.6 46 10.1
2006-06-28 06:54:31 51°13.733 2°55.729 65.1 0.3 7 10
2006-06-28 06:54:36 51°13.732 2°55.729 61.7 0.2 324 10
2006-06-28 06:54:41 51°13.731 2°55.728 58.6 0.3 257 10
2006-06-28 06:54:46 51°13.731 2°55.727 55.7 0.6 245 10
2006-06-28 06:54:50 51°13.731 2°55.725 53.1 0.8 243 10
2006-06-28 06:54:57 51°13.73 2°55.723 50.7 0.8 240 10
2006-06-28 06:55:01 51°13.73 2°55.722 48.6 0.7 240 10
2006-06-28 06:55:06 51°13.73 2°55.721 46.8 0.6 240 10
2006-06-28 06:55:11 51°13.729 2°55.72 45 0.5 246 9.9
2006-06-28 06:55:16 51°13.729 2°55.719 43 0.3 258 9.9
2006-06-28 06:55:21 51°13.729 2°55.719 40.6 0.2 302 9.7
2006-06-28 06:55:26 51°13.73 2°55.719 37.6 0.5 358 9.8
2006-06-28 06:55:30 51°13.731 2°55.719 33.3 0.8 8 9.7
2006-06-28 06:55:34 51°13.732 2°55.719 28.9 1.1 4 9.6
2006-06-28 06:55:41 51°13.734 2°55.72 21.7 1.4 3 9.5
2006-06-28 06:55:47 51°13.737 2°55.72 15.5 1.6 359 9.4
2006-06-28 06:55:51 51°13.739 2°55.719 9.4 1.8 354 9.5
2006-06-28 06:55:55 51°13.741 2°55.719 3.6 1.9 351 9.5
2006-06-28 06:56:01 51°13.745 2°55.718 357.6 2.1 347 9.3
2006-06-28 06:56:05 51°13.747 2°55.716 351.9 2.6 341 9.2
2006-06-28 06:56:10 51°13.751 2°55.714 345.5 2.9 337 9
2006-06-28 06:56:15 51°13.755 2°55.71 339.5 3.2 333 8.8
2006-06-28 06:56:21 51°13.761 2°55.705 335.1 3.7 331 9.1
2006-06-28 06:56:25 51°13.765 2°55.701 332.3 4.2 329 9.3
2006-06-28 06:56:31 51°13.771 2°55.695 331 4.4 329 9.4
2006-06-28 06:56:37 51°13.778 2°55.688 330.6 4.8 328 9.4
2006-06-28 06:56:41 51°13.783 2°55.683 330.5 5.2 328 9.4
2006-06-28 06:56:45 51°13.788 2°55.678 330.5 5.7 329 9.4
2006-06-28 06:56:51 51°13.797 2°55.669 330.8 6 328 9.4
2006-06-28 06:56:55 51°13.802 2°55.662 330.9 6.4 330 9.4
2006-06-28 06:57:02 51°13.814 2°55.652 331.5 6.7 329 9.5
2006-06-28 06:57:06 51°13.82 2°55.646 332.4 6.9 330 9.6
2006-06-28 06:57:11 51°13.829 2°55.638 333.6 7.3 332 9.6
2006-06-28 06:57:15 51°13.837 2°55.632 334.4 7.6 333 9.6
2006-06-28 06:57:22 51°13.851 2°55.622 335.7 7.7 334 9.6
2006-06-28 06:57:26 51°13.859 2°55.616 336.7 7.9 333 9.5
2006-06-28 06:57:31 51°13.869 2°55.608 336.8 8.1 333 9.6
2006-06-28 06:57:35 51°13.877 2°55.602 336.8 8.1 333 9.7
2006-06-28 06:57:41 51°13.889 2°55.593 337.9 8 336 9.7
2006-06-28 06:57:45 51°13.897 2°55.587 338.6 7.8 335 9.8
2006-06-28 06:57:51 51°13.909 2°55.578 338.7 7.7 335 9.8
2006-06-28 06:57:55 51°13.916 2°55.572 338.5 7.6 334 9.9
2006-06-28 06:58:02 51°13.93 2°55.562 338.6 7.5 335 9.8
2006-06-28 06:58:06 51°13.937 2°55.557 338.9 7.4 335 9.9
2006-06-28 06:58:11 51°13.946 2°55.55 339 7.3 335 9.9
2006-06-28 06:58:15 51°13.953 2°55.544 339 7.3 335 9.9
2006-06-28 06:58:21 51°13.964 2°55.536 339.4 7.2 336 9.8
2006-06-28 06:58:25 51°13.971 2°55.531 339.6 7.1 335 9.8
2006-06-28 06:58:31 51°13.982 2°55.524 339.6 7.1 336 9.8
2006-06-28 06:58:37 51°13.992 2°55.516 339.6 7 336 9.8
2006-06-28 06:58:41 51°14 2°55.511 339.6 7 336 9.9
2006-06-28 06:58:46 51°14.008 2°55.505 340.1 7 337 9.8
2006-06-28 06:58:51 51°14.017 2°55.499 340.6 6.9 337 9.7
2006-06-28 06:58:55 51°14.024 2°55.494 340.7 6.9 337 9.7
2006-06-28 06:59:00 51°14.033 2°55.488 340.7 6.8 337 9.7
2006-06-28 06:59:05 51°14.041 2°55.483 340.4 6.8 337 9.7
2006-06-28 06:59:11 51°14.051 2°55.475 340.3 6.8 336 9.7
2006-06-28 06:59:15 51°14.058 2°55.471 340.3 6.8 336 9.7
2006-06-28 06:59:22 51°14.071 2°55.461 340.1 6.9 335 9.8
2006-06-28 06:59:26 51°14.078 2°55.456 339.4 7.2 335 9.7
2006-06-28 06:59:31 51°14.088 2°55.449 339.2 7.5 335 9.7
2006-06-28 06:59:35 51°14.096 2°55.443 339.3 7.9 335 9.7
2006-06-28 06:59:42 51°14.11 2°55.433 338.8 8.1 334 9.7
2006-06-28 06:59:47 51°14.12 2°55.424 338.2 8.1 334 9.7
2006-06-28 06:59:51 51°14.129 2°55.417 337.6 8.5 332 9.7
2006-06-28 06:59:55 51°14.137 2°55.41 336.9 8.6 333 9.7
2006-06-28 07:00:02 51°14.152 2°55.398 336.5 8.8 331 9.7
2006-06-28 07:00:07 51°14.163 2°55.388 335.6 8.8 331 9.6
2006-06-28 07:00:11 51°14.172 2°55.379 334.2 9 329 9.6
2006-06-28 07:00:15 51°14.18 2°55.37 332.4 9.2 326 9.6
2006-06-28 07:00:21 51°14.193 2°55.356 330.5 9.3 325 9.6
2006-06-28 07:00:26 51°14.203 2°55.344 328.6 9.3 324 9.6
2006-06-28 07:00:31 51°14.213 2°55.33 326.5 9.5 320 9.6
2006-06-28 07:00:35 51°14.221 2°55.32 324.7 9.5 320 9.6
2006-06-28 07:00:40 51°14.231 2°55.305 323.5 9.6 319 9.6
2006-06-28 07:00:46 51°14.243 2°55.287 321.2 9.7 316 9.5
2006-06-28 07:00:51 51°14.252 2°55.272 319.5 9.8 313 9.5
2006-06-28 07:00:55 51°14.259 2°55.259 317 9.9 312 9.5
2006-06-28 07:01:01 51°14.271 2°55.239 315.9 10 312 9.5
2006-06-28 07:01:07 51°14.282 2°55.218 315.6 10.1 311 9.5
2006-06-28 07:01:11 51°14.289 2°55.205 314.8 10.2 311 9.4
2006-06-28 07:01:15 51°14.296 2°55.191 313.8 10.3 310 9.4
2006-06-28 07:01:18 51°14.302 2°55.18 313.8 10.3 309 9.4
2006-06-28 07:01:22 51°14.309 2°55.166 312.9 10.4 308 9.5
2006-06-28 07:01:31 51°14.325 2°55.133 311.4 10.4 307 9.4
2006-06-28 07:01:37 51°14.336 2°55.111 310.6 10.6 307 9.4
2006-06-28 07:01:42 51°14.345 2°55.092 310.6 10.7 307 9.4
2006-06-28 07:01:46 51°14.352 2°55.076 310.6 10.7 307 9.5
2006-06-28 07:01:51 51°14.361 2°55.057 310.6 10.9 306 9.6
2006-06-28 07:01:57 51°14.371 2°55.032 310 11.1 304 9.5
2006-06-28 07:01:59 51°14.374 2°55.024 308.5 11.1 302 9.4
2006-06-28 07:02:07 51°14.387 2°54.99 306.2 11.2 301 9.4
2006-06-28 07:02:11 51°14.393 2°54.972 304.8 11.2 300 9.7
2006-06-28 07:02:15 51°14.399 2°54.955 304.2 11.5 299 9.7
2006-06-28 07:02:22 51°14.41 2°54.923 304.4 11.7 300 9.9
2006-06-28 07:02:27 51°14.418 2°54.9 304.4 11.7 300 10.3
2006-06-28 07:02:31 51°14.424 2°54.882 304 11.9 299 10.5
2006-06-28 07:02:35 51°14.431 2°54.863 304.7 12.1 298 10.4
2006-06-28 07:02:42 51°14.442 2°54.83 304.9 12.3 298 10
2006-06-28 07:02:46 51°14.448 2°54.81 304.4 12.4 296 10.1
2006-06-28 07:02:51 51°14.456 2°54.785 303.9 12.7 298 10.2
2006-06-28 07:02:55 51°14.463 2°54.765 304.7 12.7 297 9.9
2006-06-28 07:03:00 51°14.471 2°54.74 305.1 12.9 298 9.8
2006-06-28 07:03:04 51°14.478 2°54.72 306.9 13 299 9.9
2006-06-28 07:03:11 51°14.49 2°54.684 307.7 13.1 298 9.9
2006-06-28 07:03:17 51°14.501 2°54.653 307 13.2 297 10
2006-06-28 07:03:21 51°14.508 2°54.632 306.5 13.2 297 10
2006-06-28 07:03:27 51°14.518 2°54.601 306.2 13.3 298 10.1
2006-06-28 07:03:31 51°14.525 2°54.58 306.2 13.4 298 9.9
2006-06-28 07:03:35 51°14.532 2°54.559 306.7 13.4 299 9.8
2006-06-28 07:03:41 51°14.543 2°54.528 307.2 13.4 300 10
2006-06-28 07:03:45 51°14.551 2°54.508 308.4 13.4 300 9.6
2006-06-28 07:03:50 51°14.56 2°54.482 309 13.4 300 10
2006-06-28 07:03:57 51°14.574 2°54.447 309.6 13.4 300 9.9
2006-06-28 07:04:01 51°14.581 2°54.427 309.9 13.4 301 10
2006-06-28 07:04:07 51°14.593 2°54.398 310.6 13.3 303 9.5
2006-06-28 07:04:10 51°14.599 2°54.382 311.5 13.4 302 9.3
2006-06-28 07:04:17 51°14.613 2°54.348 311.4 13.4 301 9.6
2006-06-28 07:04:21 51°14.621 2°54.327 312 13.3 302 9.7
2006-06-28 07:04:25 51°14.629 2°54.308 312 13.3 304 9.7
2006-06-28 07:04:31 51°14.642 2°54.278 312.8 13.3 304 9.1
2006-06-28 07:04:35 51°14.65 2°54.26 313.5 13.3 305 9.1
2006-06-28 07:04:42 51°14.665 2°54.227 314.4 13.3 306 9.3
2006-06-28 07:04:46 51°14.674 2°54.208 315.4 13.3 307 9.1
2006-06-28 07:04:51 51°14.686 2°54.186 317.4 13.1 310 9.1
2006-06-28 07:04:54 51°14.693 2°54.173 319.3 13.1 310 9
2006-06-28 07:05:01 51°14.71 2°54.142 320.3 13 311 8.8
2006-06-28 07:05:05 51°14.719 2°54.125 320.5 13.1 312 9
2006-06-28 07:05:10 51°14.732 2°54.104 321.5 13 313 8.9
2006-06-28 07:05:15 51°14.744 2°54.083 323 13 315 8.8
2006-06-28 07:05:20 51°14.757 2°54.063 324.8 12.9 317 8.8
2006-06-28 07:05:27 51°14.776 2°54.038 327 12.8 319 8.7
2006-06-28 07:05:30 51°14.784 2°54.027 329.2 12.7 321 8.7
2006-06-28 07:05:37 51°14.804 2°54.004 331.3 12.7 322 8.5
2006-06-28 07:05:41 51°14.816 2°53.992 333.2 12.6 325 8.5
2006-06-28 07:05:46 51°14.83 2°53.977 335 12.5 327 8.4
2006-06-28 07:05:51 51°14.846 2°53.964 337.9 12.4 331 8.4
2006-06-28 07:05:57 51°14.864 2°53.949 340.2 12.3 332 8.4
2006-06-28 07:06:02 51°14.879 2°53.936 341.8 12.3 333 8.2
2006-06-28 07:06:06 51°14.891 2°53.926 342.5 12.2 333 8.1
2006-06-28 07:06:11 51°14.906 2°53.913 342.7 12.3 333 8.2
2006-06-28 07:06:17 51°14.924 2°53.899 342.8 12.2 333 8
2006-06-28 07:06:22 51°14.939 2°53.886 342.5 12.2 332 7.9
2006-06-28 07:06:27 51°14.954 2°53.873 342 12.2 332 8
2006-06-28 07:06:31 51°14.966 2°53.863 341.7 12.3 332 8.2
2006-06-28 07:06:34 51°14.975 2°53.855 341.6 12.3 332 8.1
2006-06-28 07:06:41 51°14.996 2°53.837 341.7 12.3 332 8.1
2006-06-28 07:06:44 51°15.005 2°53.83 342.1 12.2 333 8.3
2006-06-28 07:06:51 51°15.026 2°53.812 342.2 12.3 333 8.1
2006-06-28 07:06:55 51°15.038 2°53.803 342.5 12.2 334 8.4
2006-06-28 07:07:02 51°15.06 2°53.786 343.1 12.3 333 8.3
2006-06-28 07:07:07 51°15.075 2°53.774 343.3 12.3 333 8.2
2006-06-28 07:07:11 51°15.087 2°53.764 343.3 12.4 333 8.3
2006-06-28 07:07:15 51°15.099 2°53.754 342.7 12.3 332 8.5
2006-06-28 07:07:22 51°15.12 2°53.736 342.5 12.3 332 8.4
2006-06-28 07:07:27 51°15.135 2°53.723 342.5 12.3 332 8.5
2006-06-28 07:07:31 51°15.147 2°53.713 342.1 12.4 331 8.4
2006-06-28 07:07:35 51°15.159 2°53.702 341.8 12.4 331 8.4
2006-06-28 07:07:40 51°15.174 2°53.688 341.3 12.3 330 8.4
2006-06-28 07:07:46 51°15.192 2°53.672 341.1 12.4 330 8.6
2006-06-28 07:07:52 51°15.21 2°53.656 340.8 12.5 331 8.7
2006-06-28 07:07:57 51°15.225 2°53.642 340.7 12.4 330 8.7
2006-06-28 07:08:01 51°15.237 2°53.631 340.4 12.4 330 8.7
2006-06-28 07:08:04 51°15.246 2°53.622 340.2 12.5 329 8.8
2006-06-28 07:08:11 51°15.267 2°53.603 340.1 12.5 329 8.8
2006-06-28 07:08:14 51°15.276 2°53.594 339.7 12.5 330 8.8
2006-06-28 07:08:21 51°15.297 2°53.575 340 12.5 330 8.9
2006-06-28 07:08:22 51°15.3 2°53.572 340.4 12.5 330 9
2006-06-28 07:08:31 51°15.327 2°53.548 340.7 12.4 330 9.1
2006-06-28 07:08:37 51°15.345 2°53.532 340.6 12.4 330 9
2006-06-28 07:08:42 51°15.359 2°53.517 340.5 12.4 330 9
2006-06-28 07:08:47 51°15.375 2°53.503 340.2 12.4 330 9
2006-06-28 07:08:51 51°15.386 2°53.491 339.8 12.5 328 9.1
2006-06-28 07:08:57 51°15.404 2°53.474 338.8 12.5 328 9.3
2006-06-28 07:09:02 51°15.418 2°53.459 338.3 12.5 328 9.3
2006-06-28 07:09:06 51°15.43 2°53.447 338 12.5 327 9.2
2006-06-28 07:09:11 51°15.444 2°53.432 337.8 12.5 328 9.3
2006-06-28 07:09:15 51°15.456 2°53.421 338 12.5 327 9.3
2006-06-28 07:09:21 51°15.474 2°53.404 338.6 12.4 329 9.4
2006-06-28 07:09:27 51°15.492 2°53.387 339.3 12.4 329 9.3
2006-06-28 07:09:32 51°15.507 2°53.373 339.8 12.4 330 9.5
2006-06-28 07:09:35 51°15.515 2°53.365 340.1 12.4 330 9.5
2006-06-28 07:09:41 51°15.533 2°53.348 340 12.4 329 9.5
2006-06-28 07:09:47 51°15.551 2°53.332 339.9 12.5 330 9.6
2006-06-28 07:09:52 51°15.566 2°53.318 340 12.4 330 9.7
2006-06-28 07:09:55 51°15.575 2°53.31 340 12.5 330 9.7
2006-06-28 07:10:01 51°15.593 2°53.293 340 12.5 330 9.7
2006-06-28 07:10:04 51°15.602 2°53.284 339.8 12.5 329 9.8
2006-06-28 07:10:11 51°15.623 2°53.264 339.6 12.6 329 9.9
2006-06-28 07:10:15 51°15.635 2°53.253 339.3 12.5 329 9.9
2006-06-28 07:10:21 51°15.652 2°53.235 338.8 12.5 328 9.8
2006-06-28 07:10:26 51°15.667 2°53.221 338.3 12.5 328 10
2006-06-28 07:10:31 51°15.682 2°53.206 337.8 12.6 328 10
2006-06-28 07:10:37 51°15.7 2°53.188 337.7 12.6 328 10
2006-06-28 07:10:42 51°15.715 2°53.173 337.4 12.6 327 10.1
2006-06-28 07:10:46 51°15.726 2°53.161 336.7 12.6 327 10.1
2006-06-28 07:10:51 51°15.742 2°53.147 337.3 12.6 329 10.2
2006-06-28 07:10:57 51°15.76 2°53.131 338.9 12.6 330 10.3
2006-06-28 07:11:01 51°15.772 2°53.121 340.4 12.5 332 10.3
2006-06-28 07:11:07 51°15.791 2°53.105 342 12.5 333 10.3
2006-06-28 07:11:11 51°15.803 2°53.096 342.6 12.5 333 10.5
2006-06-28 07:11:15 51°15.816 2°53.086 343.3 12.5 334 10.5
2006-06-28 07:11:22 51°15.837 2°53.069 343.7 12.6 334 10.5
2006-06-28 07:11:27 51°15.853 2°53.057 344 12.6 334 10.6
2006-06-28 07:11:31 51°15.866 2°53.047 344.3 12.5 334 10.6
2006-06-28 07:11:35 51°15.878 2°53.038 344.5 12.5 335 10.5
2006-06-28 07:11:42 51°15.9 2°53.021 344.5 12.6 334 10.6
2006-06-28 07:11:47 51°15.916 2°53.009 344.6 12.5 334 10.7
2006-06-28 07:11:52 51°15.932 2°52.997 344.4 12.6 334 10.7
2006-06-28 07:11:55 51°15.941 2°52.989 344.1 12.6 334 10.7
2006-06-28 07:12:01 51°15.96 2°52.975 344 12.6 334 10.7
2006-06-28 07:12:07 51°15.979 2°52.96 343.6 12.6 334 10.8
2006-06-28 07:12:11 51°15.991 2°52.95 343.8 12.5 334 10.9
2006-06-28 07:12:17 51°16.01 2°52.937 344.2 12.5 335 10.9
2006-06-28 07:12:22 51°16.026 2°52.925 344.6 12.5 335 10.9
2006-06-28 07:12:27 51°16.041 2°52.913 344.6 12.5 335 10.9
2006-06-28 07:12:31 51°16.054 2°52.904 344.6 12.5 334 10.9
2006-06-28 07:12:35 51°16.066 2°52.894 344.2 12.5 334 10.9
2006-06-28 07:12:41 51°16.085 2°52.879 344 12.5 334 10.9
2006-06-28 07:12:46 51°16.101 2°52.867 343.9 12.5 334 11
2006-06-28 07:12:51 51°16.116 2°52.856 344.2 12.4 335 10.9
2006-06-28 07:12:55 51°16.129 2°52.847 345.1 12.4 336 10.8
2006-06-28 07:13:01 51°16.148 2°52.834 346 12.4 337 10.9
2006-06-28 07:13:06 51°16.164 2°52.824 346.9 12.5 337 10.9
2006-06-28 07:13:11 51°16.18 2°52.813 347.2 12.5 337 11
2006-06-28 07:13:17 51°16.199 2°52.801 347.5 12.4 338 10.9
2006-06-28 07:13:22 51°16.215 2°52.79 347.7 12.5 338 11
2006-06-28 07:13:27 51°16.231 2°52.78 347.8 12.4 338 11
2006-06-28 07:13:31 51°16.244 2°52.772 348.2 12.4 338 11.1
2006-06-28 07:13:35 51°16.257 2°52.764 348.3 12.5 338 11
2006-06-28 07:13:41 51°16.276 2°52.752 348.2 12.5 338 11
2006-06-28 07:13:46 51°16.292 2°52.741 347.8 12.5 337 11.1
2006-06-28 07:13:51 51°16.308 2°52.73 347.5 12.6 337 11
2006-06-28 07:13:55 51°16.321 2°52.721 347 12.5 337 11.1
2006-06-28 07:14:01 51°16.34 2°52.708 346.9 12.5 337 11
2006-06-28 07:14:05 51°16.353 2°52.7 346.9 12.5 336 11
2006-06-28 07:14:11 51°16.372 2°52.686 346.6 12.5 337 11
2006-06-28 07:14:16 51°16.388 2°52.675 346.5 12.5 336 11
2006-06-28 07:14:21 51°16.404 2°52.664 346.5 12.6 337 10.9
2006-06-28 07:14:24 51°16.413 2°52.658 346.8 12.4 337 10.9
2006-06-28 07:14:31 51°16.435 2°52.643 347 12.5 337 10.8
2006-06-28 07:14:35 51°16.448 2°52.634 347.2 12.5 337 10.9
2006-06-28 07:14:41 51°16.467 2°52.621 347.4 12.5 337 10.9
2006-06-28 07:14:46 51°16.483 2°52.611 347.4 12.5 337 10.9
2006-06-28 07:14:51 51°16.499 2°52.599 347.2 12.5 337 10.7
2006-06-28 07:14:57 51°16.519 2°52.587 347.2 12.5 337 10.6
2006-06-28 07:15:02 51°16.535 2°52.576 347.4 12.5 337 10.7
2006-06-28 07:15:06 51°16.547 2°52.568 347.7 12.5 338 10.4
2006-06-28 07:15:11 51°16.564 2°52.557 347.9 12.5 338 10.3
2006-06-28 07:15:17 51°16.583 2°52.545 347.9 12.5 338 10.2
2006-06-28 07:15:22 51°16.599 2°52.535 347.9 12.5 338 10.1
2006-06-28 07:15:27 51°16.615 2°52.524 348.1 12.5 338 10
2006-06-28 07:15:31 51°16.628 2°52.516 348.1 12.5 338 10
2006-06-28 07:15:37 51°16.647 2°52.504 348.1 12.4 338 10
2006-06-28 07:15:41 51°16.66 2°52.496 348.3 12.3 338 9.7
2006-06-28 07:15:45 51°16.672 2°52.488 348.4 12.3 338 9.4
2006-06-28 07:15:50 51°16.688 2°52.478 348.5 12.3 338 9.2
2006-06-28 07:15:55 51°16.704 2°52.468 348.5 12.3 338 8.8
2006-06-28 07:16:01 51°16.723 2°52.455 348.3 12.3 338 8.5
2006-06-28 07:16:05 51°16.736 2°52.447 348.4 12.3 338 8.8
2006-06-28 07:16:11 51°16.755 2°52.435 348.3 12.2 338 8.9
2006-06-28 07:16:17 51°16.774 2°52.424 348.6 12.3 339 9
2006-06-28 07:16:22 51°16.79 2°52.415 349.1 12.4 339 9
2006-06-28 07:16:27 51°16.806 2°52.405 349.5 12.4 340 9
2006-06-28 07:16:31 51°16.819 2°52.398 349.6 12.3 340 9
2006-06-28 07:16:36 51°16.835 2°52.388 349.6 12.3 340 8.9
2006-06-28 07:16:41 51°16.851 2°52.379 349.6 12.3 340 8.7
2006-06-28 07:16:46 51°16.867 2°52.369 349.6 12.3 339 8.7
2006-06-28 07:16:51 51°16.883 2°52.359 349.2 12.3 339 8.6
2006-06-28 07:16:55 51°16.895 2°52.351 348.8 12.2 338 8.5
2006-06-28 07:16:58 51°16.905 2°52.345 348.4 12.2 338 8.6
2006-06-28 07:17:05 51°16.927 2°52.331 348 12.3 337 8.6
2006-06-28 07:17:11 51°16.946 2°52.317 347 12.3 336 8.7
2006-06-28 07:17:16 51°16.961 2°52.305 345.6 12.4 335 8.7
2006-06-28 07:17:22 51°16.98 2°52.291 344.7 12.4 334 8.7
2006-06-28 07:17:27 51°16.995 2°52.279 343.4 12.4 333 8.8
2006-06-28 07:17:31 51°17.007 2°52.269 342.9 12.3 334 9
2006-06-28 07:17:37 51°17.026 2°52.256 343.5 12.3 335 9
2006-06-28 07:17:41 51°17.039 2°52.248 344.7 12.3 337 9.1
2006-06-28 07:17:45 51°17.051 2°52.24 346.2 12.3 338 9.1
2006-06-28 07:17:51 51°17.071 2°52.229 348 12.2 340 9.2
2006-06-28 07:17:57 51°17.09 2°52.219 350.2 12.2 342 9.2
2006-06-28 07:18:01 51°17.103 2°52.213 351.4 12.2 343 9.4
2006-06-28 07:18:07 51°17.123 2°52.204 352.7 12.2 344 9.3
2006-06-28 07:18:11 51°17.136 2°52.198 353.4 12.2 344 9.4
2006-06-28 07:18:16 51°17.152 2°52.191 353.9 12.1 344 9.4
2006-06-28 07:18:22 51°17.171 2°52.182 354.4 12.1 345 9.5
2006-06-28 07:18:27 51°17.187 2°52.176 354.5 12.1 345 9.4
2006-06-28 07:18:32 51°17.204 2°52.169 354.8 12.1 345 9.4
2006-06-28 07:18:37 51°17.22 2°52.162 354.9 12.1 345 9.4
2006-06-28 07:18:41 51°17.233 2°52.157 354.9 12.1 345 9.5
2006-06-28 07:18:47 51°17.253 2°52.148 354.6 12.2 345 9.4
2006-06-28 07:18:51 51°17.266 2°52.142 354.4 12.1 345 9.6
2006-06-28 07:18:55 51°17.279 2°52.136 354.1 12.1 344 9.6
2006-06-28 07:19:01 51°17.298 2°52.128 354.2 12.1 345 9.7
2006-06-28 07:19:06 51°17.314 2°52.121 354.4 12.1 344 9.6
2006-06-28 07:19:12 51°17.334 2°52.112 354.4 12.1 344 9.5
2006-06-28 07:19:17 51°17.349 2°52.105 354.1 12.1 344 9.4
2006-06-28 07:19:22 51°17.366 2°52.097 353.7 12 343 9.3
2006-06-28 07:19:26 51°17.378 2°52.089 352.7 12.1 339 9.5
2006-06-28 07:19:31 51°17.393 2°52.077 349.1 12.1 334 9.4
2006-06-28 07:19:37 51°17.41 2°52.06 344.3 12.1 331 9.2
2006-06-28 07:19:42 51°17.424 2°52.045 340.2 12.2 328 9.5
2006-06-28 07:19:47 51°17.438 2°52.029 337.1 12.3 325 9.5
2006-06-28 07:19:51 51°17.449 2°52.016 335 12.3 324 9.3
2006-06-28 07:19:57 51°17.466 2°51.996 333.1 12.4 323 9.4
2006-06-28 07:20:01 51°17.476 2°51.981 331.8 12.5 320 9.5
2006-06-28 07:20:05 51°17.487 2°51.967 330.9 12.4 318 9.4
2006-06-28 07:20:10 51°17.498 2°51.947 327.8 12.5 313 9.4
2006-06-28 07:20:16 51°17.512 2°51.921 322.2 12.6 311 9.4
2006-06-28 07:20:21 51°17.522 2°51.899 318.6 12.7 307 9.2
2006-06-28 07:20:25 51°17.53 2°51.88 316.3 12.8 305 9.4
2006-06-28 07:20:31 51°17.542 2°51.852 314 12.8 302 9.3
2006-06-28 07:20:36 51°17.551 2°51.827 311.9 12.8 302 9.2
2006-06-28 07:20:41 51°17.56 2°51.803 310.5 12.9 299 9.2
2006-06-28 07:20:45 51°17.567 2°51.783 309.1 12.9 298 9
2006-06-28 07:20:51 51°17.576 2°51.752 306.5 13 295 9.1
2006-06-28 07:20:54 51°17.58 2°51.736 304.1 13 294 9.1
2006-06-28 07:21:01 51°17.589 2°51.699 302.6 12.9 291 9
2006-06-28 07:21:05 51°17.592 2°51.676 298.3 13 284 8.8
2006-06-28 07:21:10 51°17.596 2°51.648 293.3 13.1 283 8.7
2006-06-28 07:21:16 51°17.6 2°51.613 289.3 13.1 279 8.7
2006-06-28 07:21:21 51°17.602 2°51.584 285.9 13.2 277 8.8
2006-06-28 07:21:27 51°17.604 2°51.549 283.9 13.2 276 8.7
2006-06-28 07:21:31 51°17.605 2°51.525 282.4 13.3 275 8.7
2006-06-28 07:21:37 51°17.606 2°51.49 280.8 13.4 274 8.6
2006-06-28 07:21:42 51°17.609 2°51.461 280.7 13.3 277 8.7
2006-06-28 07:21:46 51°17.611 2°51.438 282.1 13.3 277 8.7
2006-06-28 07:21:51 51°17.614 2°51.408 283.8 13.4 280 8.7
2006-06-28 07:21:55 51°17.617 2°51.385 285.9 13.4 281 8.6
2006-06-28 07:22:01 51°17.622 2°51.351 287.6 13.3 283 8.6
2006-06-28 07:22:05 51°17.626 2°51.328 290.3 13.3 286 8.6
2006-06-28 07:22:11 51°17.632 2°51.294 292.7 13.2 287 8.6
2006-06-28 07:22:17 51°17.639 2°51.261 294.7 13.2 288 8.6
2006-06-28 07:22:22 51°17.645 2°51.233 296 13.3 289 8.5
2006-06-28 07:22:27 51°17.652 2°51.206 296.7 13.3 289 8.6
2006-06-28 07:22:31 51°17.657 2°51.184 297.4 13.2 290 8.4
2006-06-28 07:22:37 51°17.664 2°51.15 297.7 13.4 290 8.8
2006-06-28 07:22:41 51°17.669 2°51.128 297.9 13.4 289 8.6
2006-06-28 07:22:47 51°17.677 2°51.095 298 13.3 290 8.7
2006-06-28 07:22:51 51°17.682 2°51.072 298.1 13.4 290 8.7
2006-06-28 07:22:54 51°17.686 2°51.056 298 13.4 290 8.9
2006-06-28 07:23:01 51°17.695 2°51.017 298.2 13.4 290 9.1
2006-06-28 07:23:06 51°17.701 2°50.989 298.5 13.4 290 9.2
2006-06-28 07:23:11 51°17.708 2°50.961 298.6 13.5 290 9.3
2006-06-28 07:23:15 51°17.713 2°50.938 298.3 13.5 290 9.5
2006-06-28 07:23:22 51°17.722 2°50.898 298.1 13.6 289 9.6
2006-06-28 07:23:27 51°17.728 2°50.87 298.1 13.6 289 9.7
2006-06-28 07:23:31 51°17.733 2°50.847 297.5 13.6 289 9.9
2006-06-28 07:23:35 51°17.738 2°50.824 297.3 13.7 289 10.1
2006-06-28 07:23:41 51°17.745 2°50.79 296.9 13.7 289 10.3
2006-06-28 07:23:46 51°17.751 2°50.762 297 13.7 288 10.4
2006-06-28 07:23:52 51°17.758 2°50.727 297.1 13.6 288 10.5
2006-06-28 07:23:57 51°17.765 2°50.699 297.4 13.6 289 10.7
2006-06-28 07:24:02 51°17.77 2°50.67 297.1 13.7 288 10.8
2006-06-28 07:24:07 51°17.777 2°50.642 297.1 13.7 288 10.9
2006-06-28 07:24:11 51°17.781 2°50.619 297.4 13.6 289 10.9
2006-06-28 07:24:17 51°17.789 2°50.585 297.1 13.6 289 11
2006-06-28 07:24:21 51°17.794 2°50.562 297.1 13.6 289 11.1
2006-06-28 07:24:25 51°17.799 2°50.539 297.1 13.7 289 11
2006-06-28 07:24:31 51°17.806 2°50.504 297 13.7 288 11.2
2006-06-28 07:24:34 51°17.809 2°50.487 296.9 13.7 288 11.4
2006-06-28 07:24:41 51°17.817 2°50.447 296.5 13.7 288 11.3
2006-06-28 07:24:46 51°17.823 2°50.418 296 13.7 287 11.4
2006-06-28 07:24:51 51°17.829 2°50.388 295.9 13.8 287 11.3
2006-06-28 07:24:55 51°17.833 2°50.365 295.9 13.8 288 11.5
2006-06-28 07:25:02 51°17.841 2°50.325 296 13.7 288 11.6
2006-06-28 07:25:07 51°17.847 2°50.296 296 13.7 288 11.7
2006-06-28 07:25:11 51°17.852 2°50.273 296.1 13.7 288 11.8
2006-06-28 07:25:15 51°17.857 2°50.25 296.3 13.7 288 11.9
2006-06-28 07:25:21 51°17.864 2°50.216 296.5 13.7 288 12
2006-06-28 07:25:27 51°17.871 2°50.18 296.5 13.7 289 11.9
2006-06-28 07:25:31 51°17.876 2°50.157 296.7 13.7 288 12.1
2006-06-28 07:25:34 51°17.879 2°50.14 296.8 13.7 288 12.1
2006-06-28 07:25:41 51°17.888 2°50.1 296.8 13.7 289 12
2006-06-28 07:25:46 51°17.894 2°50.071 297 13.7 290 12.2
2006-06-28 07:25:51 51°17.901 2°50.043 297.6 13.6 290 12.1
2006-06-28 07:25:55 51°17.906 2°50.021 298.3 13.6 291 12.1
2006-06-28 07:26:02 51°17.916 2°49.981 299 13.7 291 12.3
2006-06-28 07:26:06 51°17.921 2°49.958 299.5 13.7 291 12.4
2006-06-28 07:26:11 51°17.928 2°49.93 300 13.7 291 12.3
2006-06-28 07:26:15 51°17.934 2°49.907 300 13.7 292 12.5
2006-06-28 07:26:21 51°17.942 2°49.874 300.2 13.7 292 12.5
2006-06-28 07:26:25 51°17.947 2°49.852 300.6 13.7 292 12.5
2006-06-28 07:26:31 51°17.956 2°49.818 300.5 13.6 292 12.6
2006-06-28 07:26:34 51°17.96 2°49.801 300.4 13.7 292 12.5
2006-06-28 07:26:41 51°17.97 2°49.761 299.9 13.7 291 12.6
2006-06-28 07:26:46 51°17.976 2°49.732 299.5 13.7 290 12.6
2006-06-28 07:26:51 51°17.983 2°49.704 299 13.7 291 12.6
2006-06-28 07:26:57 51°17.991 2°49.67 299.4 13.7 291 12.5
2006-06-28 07:27:02 51°17.998 2°49.642 300 13.6 292 12.5
2006-06-28 07:27:07 51°18.005 2°49.614 300.3 13.6 292 12.5
2006-06-28 07:27:11 51°18.011 2°49.592 300.6 13.7 292 12.5
2006-06-28 07:27:15 51°18.017 2°49.569 300.7 13.6 292 12.3
2006-06-28 07:27:21 51°18.025 2°49.536 300.5 13.7 292 12.3
2006-06-28 07:27:27 51°18.033 2°49.502 300.4 13.7 291 12.1
2006-06-28 07:27:31 51°18.039 2°49.48 300.3 13.7 292 12.1
2006-06-28 07:27:34 51°18.043 2°49.463 300.4 13.6 292 12.1
2006-06-28 07:27:41 51°18.053 2°49.423 300.4 13.6 292 11.9
2006-06-28 07:27:46 51°18.06 2°49.396 300.3 13.6 292 11.8
2006-06-28 07:27:51 51°18.067 2°49.368 300.8 13.6 292 11.4
2006-06-28 07:27:57 51°18.076 2°49.335 300.7 13.6 292 10.8
2006-06-28 07:28:01 51°18.081 2°49.312 300.9 13.5 293 10.9
2006-06-28 07:28:07 51°18.09 2°49.279 301.1 13.6 292 10.7
2006-06-28 07:28:11 51°18.096 2°49.257 301.5 13.5 293 10.7
2006-06-28 07:28:15 51°18.102 2°49.235 301.5 13.5 294 10.6
2006-06-28 07:28:19 51°18.108 2°49.213 302 13.5 293 10.7
2006-06-28 07:28:27 51°18.119 2°49.169 301.9 13.5 293 10.6
2006-06-28 07:28:31 51°18.125 2°49.147 302 13.4 293 10.4
2006-06-28 07:28:37 51°18.134 2°49.114 301.9 13.5 293 10.3
2006-06-28 07:28:42 51°18.141 2°49.087 301.6 13.4 293 10
2006-06-28 07:28:46 51°18.147 2°49.065 301.7 13.5 293 9.8
2006-06-28 07:28:51 51°18.155 2°49.038 302.4 13.4 294 9.6
2006-06-28 07:28:57 51°18.165 2°49.006 303.2 13.4 296 9.4
2006-06-28 07:29:02 51°18.173 2°48.98 304.1 13.3 296 9.2
2006-06-28 07:29:06 51°18.18 2°48.959 305 13.3 297 8.8
2006-06-28 07:29:11 51°18.188 2°48.933 305.2 13.3 297 9
2006-06-28 07:29:17 51°18.198 2°48.901 305.5 13.3 297 9.4
2006-06-28 07:29:21 51°18.205 2°48.88 305.7 13.4 297 9.4
2006-06-28 07:29:27 51°18.215 2°48.848 306 13.5 297 9.4
2006-06-28 07:29:31 51°18.222 2°48.826 306.3 13.5 297 9.2
2006-06-28 07:29:36 51°18.231 2°48.8 306.3 13.5 298 9.3
2006-06-28 07:29:41 51°18.24 2°48.775 307.2 13.5 298 9.4
2006-06-28 07:29:47 51°18.252 2°48.744 307.9 13.4 300 9.2
2006-06-28 07:29:52 51°18.261 2°48.718 308.6 13.4 300 9
2006-06-28 07:29:54 51°18.265 2°48.708 309.3 13.4 301 8.8
2006-06-28 07:30:01 51°18.279 2°48.672 309.9 13.4 302 8.9
2006-06-28 07:30:07 51°18.29 2°48.642 310.8 13.4 302 9.3
2006-06-28 07:30:11 51°18.298 2°48.622 310.9 13.4 302 9.4
2006-06-28 07:30:17 51°18.31 2°48.592 310.9 13.5 302 9.7
2006-06-28 07:30:21 51°18.318 2°48.572 311.1 13.4 302 9.6
2006-06-28 07:30:27 51°18.33 2°48.541 311.3 13.6 302 9.6
2006-06-28 07:30:31 51°18.337 2°48.52 310.9 13.5 301 9.4
2006-06-28 07:30:37 51°18.349 2°48.489 310.5 13.5 301 8.8
2006-06-28 07:30:42 51°18.358 2°48.465 310.5 13.3 301 8.9
2006-06-28 07:30:46 51°18.366 2°48.444 310.1 13.3 301 9
2006-06-28 07:30:51 51°18.375 2°48.419 309.8 13.4 301 9.1
2006-06-28 07:30:57 51°18.387 2°48.388 309.3 13.5 301 9.6
2006-06-28 07:31:01 51°18.394 2°48.367 309.3 13.5 300 9.8
2006-06-28 07:31:05 51°18.402 2°48.347 309.1 13.5 302 9.9
2006-06-28 07:31:10 51°18.412 2°48.321 309.9 13.5 301 9.8
2006-06-28 07:31:17 51°18.426 2°48.285 310.4 13.6 302 10.1
2006-06-28 07:31:21 51°18.434 2°48.265 310.6 13.6 302 10.4
2006-06-28 07:31:26 51°18.444 2°48.24 310.8 13.5 302 10.8
2006-06-28 07:31:31 51°18.453 2°48.214 310.8 13.5 301 10.9
2006-06-28 07:31:35 51°18.461 2°48.193 310.6 13.6 301 11.2
2006-06-28 07:31:41 51°18.472 2°48.162 309.9 13.5 299 11.5
2006-06-28 07:31:45 51°18.479 2°48.141 307.9 13.5 298 11.7
2006-06-28 07:31:51 51°18.489 2°48.108 307 13.6 296 11.8
2006-06-28 07:31:56 51°18.497 2°48.081 304.4 13.6 295 12.1
2006-06-28 07:32:01 51°18.504 2°48.053 302.7 13.7 293 12.2
2006-06-28 07:32:04 51°18.509 2°48.036 301.5 13.7 293 12.3
2006-06-28 07:32:11 51°18.518 2°47.997 300.8 13.7 292 12.6
2006-06-28 07:32:17 51°18.527 2°47.963 300.3 13.7 292 12.7
2006-06-28 07:32:21 51°18.532 2°47.94 299.9 13.7 291 12.9
2006-06-28 07:32:27 51°18.541 2°47.906 299.7 13.7 292 12.9
2006-06-28 07:32:31 51°18.546 2°47.884 299.8 13.7 292 13
2006-06-28 07:32:35 51°18.553 2°47.862 300.2 13.8 293 13.1
2006-06-28 07:32:41 51°18.562 2°47.829 301.2 13.7 294 13.2
2006-06-28 07:32:45 51°18.569 2°47.807 302.9 13.7 295 13.4
2006-06-28 07:32:50 51°18.577 2°47.781 304.6 13.6 297 13.4
2006-06-28 07:32:57 51°18.589 2°47.743 305.5 13.6 296 13.6
2006-06-28 07:33:01 51°18.596 2°47.721 305.7 13.7 296 13.9
2006-06-28 07:33:05 51°18.603 2°47.7 305.6 13.7 297 14.1
2006-06-28 07:33:11 51°18.612 2°47.666 305.7 13.7 296 14.6
2006-06-28 07:33:17 51°18.623 2°47.634 305.6 13.7 296 15
2006-06-28 07:33:21 51°18.629 2°47.612 305.5 13.8 295 15.3
2006-06-28 07:33:25 51°18.636 2°47.59 305.5 13.7 296 15.7
2006-06-28 07:33:31 51°18.645 2°47.558 305.4 13.7 295 15.7
2006-06-28 07:33:34 51°18.651 2°47.541 304.9 13.7 296 15.9
2006-06-28 07:33:41 51°18.662 2°47.504 305.3 13.6 297 16.1
2006-06-28 07:33:46 51°18.671 2°47.478 305.9 13.5 298 16.2
2006-06-28 07:33:51 51°18.68 2°47.451 306.7 13.6 298 16.2
2006-06-28 07:33:57 51°18.69 2°47.419 307.2 13.4 298 16.3
2006-06-28 07:34:01 51°18.698 2°47.398 307 13.5 298 16.4
2006-06-28 07:34:06 51°18.706 2°47.372 306.8 13.5 298 16.5
2006-06-28 07:34:11 51°18.714 2°47.345 306.2 13.5 297 16.6
2006-06-28 07:34:15 51°18.721 2°47.323 305.9 13.6 296 16.6
2006-06-28 07:34:22 51°18.732 2°47.286 305.4 13.5 296 16.8
2006-06-28 07:34:27 51°18.741 2°47.259 305.5 13.5 296 16.8
2006-06-28 07:34:31 51°18.748 2°47.238 305.5 13.5 297 17
2006-06-28 07:34:35 51°18.755 2°47.216 305.7 13.5 297 17.3
2006-06-28 07:34:42 51°18.766 2°47.179 305.8 13.5 296 17.5
2006-06-28 07:34:47 51°18.775 2°47.152 305.9 13.6 297 17.6
2006-06-28 07:34:51 51°18.781 2°47.13 306 13.7 296 17.9
2006-06-28 07:34:55 51°18.788 2°47.109 306.1 13.6 297 18.1
2006-06-28 07:35:01 51°18.799 2°47.077 306.2 13.6 297 18.3
2006-06-28 07:35:07 51°18.809 2°47.044 306.2 13.7 297 18.3
2006-06-28 07:35:10 51°18.814 2°47.028 306.2 13.6 297 18.5
2006-06-28 07:35:15 51°18.823 2°47.001 306.3 13.7 297 18.6
2006-06-28 07:35:20 51°18.831 2°46.973 306.5 13.7 297 18.7
2006-06-28 07:35:25 51°18.84 2°46.947 306.1 13.7 297 18.8
2006-06-28 07:35:31 51°18.85 2°46.914 305.9 13.8 296 18.8
2006-06-28 07:35:35 51°18.857 2°46.893 305.9 13.8 296 19.1
2006-06-28 07:35:40 51°18.865 2°46.865 305.5 13.7 296 19
2006-06-28 07:35:47 51°18.877 2°46.827 305.3 13.8 296 19.2
2006-06-28 07:35:51 51°18.883 2°46.805 305.5 13.8 295 19.3
2006-06-28 07:35:57 51°18.894 2°46.772 305.5 13.8 296 19.3
2006-06-28 07:36:02 51°18.902 2°46.745 305.6 13.8 296 19.5
2006-06-28 07:36:06 51°18.909 2°46.723 306 13.8 297 19.6
2006-06-28 07:36:11 51°18.917 2°46.696 306 13.7 296 19.6
2006-06-28 07:36:15 51°18.924 2°46.674 306.1 13.8 296 19.6
2006-06-28 07:36:19 51°18.931 2°46.652 305.9 13.8 296 19.8
2006-06-28 07:36:27 51°18.944 2°46.608 305.8 13.8 296 19.7
2006-06-28 07:36:31 51°18.951 2°46.586 305.4 13.9 296 19.9
2006-06-28 07:36:37 51°18.961 2°46.552 305.4 13.8 295 19.8
2006-06-28 07:36:42 51°18.969 2°46.524 305.7 13.8 296 19.8
2006-06-28 07:36:47 51°18.978 2°46.497 305.7 13.9 296 19.7
2006-06-28 07:36:51 51°18.984 2°46.475 306.2 13.8 297 19.9
2006-06-28 07:36:55 51°18.991 2°46.454 306.6 13.8 297 19.9
2006-06-28 07:37:02 51°19.003 2°46.415 306.3 13.8 297 20
2006-06-28 07:37:07 51°19.012 2°46.387 306.4 13.8 297 20
2006-06-28 07:37:11 51°19.019 2°46.365 306.5 13.9 296 20.1
2006-06-28 07:37:17 51°19.029 2°46.333 306.3 13.8 297 19.9
2006-06-28 07:37:22 51°19.037 2°46.306 306.5 13.7 297 19.9
2006-06-28 07:37:27 51°19.046 2°46.278 306.6 13.7 297 19.5
2006-06-28 07:37:31 51°19.052 2°46.256 306.3 13.8 296 19.9
2006-06-28 07:37:35 51°19.059 2°46.234 306.2 13.9 296 19.9
2006-06-28 07:37:38 51°19.064 2°46.218 306.2 13.8 296 19.9
2006-06-28 07:37:47 51°19.08 2°46.169 306.2 13.8 297 19.8
2006-06-28 07:37:51 51°19.087 2°46.147 306.6 13.8 297 19.8
2006-06-28 07:37:57 51°19.097 2°46.115 307.2 13.7 297 19.3
2006-06-28 07:38:01 51°19.104 2°46.093 307.2 13.8 297 19.2
2006-06-28 07:38:06 51°19.113 2°46.066 306.8 13.8 296 19.1
2006-06-28 07:38:11 51°19.122 2°46.038 306.5 13.8 296 18.5
2006-06-28 07:38:17 51°19.132 2°46.006 306.3 13.9 297 17.7
2006-06-28 07:38:21 51°19.139 2°45.984 306.2 13.8 296 18.8
2006-06-28 07:38:27 51°19.149 2°45.951 306.5 13.9 297 18.7
2006-06-28 07:38:31 51°19.156 2°45.93 306.7 13.8 297 18.2
2006-06-28 07:38:35 51°19.163 2°45.908 306.9 13.8 297 17.8
2006-06-28 07:38:42 51°19.175 2°45.869 306.9 13.8 297 17.5
2006-06-28 07:38:47 51°19.184 2°45.843 306.7 13.8 297 17
2006-06-28 07:38:51 51°19.191 2°45.821 306.5 13.8 296 16.5
2006-06-28 07:38:55 51°19.198 2°45.799 306.1 13.8 297 15.9
2006-06-28 07:39:02 51°19.21 2°45.76 306.2 13.8 297 15.7
2006-06-28 07:39:07 51°19.218 2°45.733 306.2 13.8 297 16.4
2006-06-28 07:39:11 51°19.225 2°45.711 306.2 13.8 297 15.7
2006-06-28 07:39:15 51°19.232 2°45.69 306.2 13.8 297 15.1
2006-06-28 07:39:22 51°19.245 2°45.651 306.2 13.7 297 14.7
2006-06-28 07:39:27 51°19.253 2°45.624 306.2 13.7 297 13.6
2006-06-28 07:39:31 51°19.26 2°45.603 306.2 13.8 297 14.4
2006-06-28 07:39:37 51°19.271 2°45.57 306.5 13.8 298 14.4
2006-06-28 07:39:41 51°19.278 2°45.548 306.7 13.9 297 13.4
2006-06-28 07:39:47 51°19.289 2°45.516 307 13.9 297 12.8
2006-06-28 07:39:51 51°19.296 2°45.494 306.7 13.9 297 13.5
2006-06-28 07:39:57 51°19.307 2°45.461 306.5 13.8 298 12.9
2006-06-28 07:40:02 51°19.315 2°45.435 306.8 13.9 297 11.8
2006-06-28 07:40:06 51°19.323 2°45.413 306.5 13.7 299 11.3
2006-06-28 07:40:11 51°19.331 2°45.386 306.9 13.8 298 11.3
2006-06-28 07:40:17 51°19.342 2°45.354 306.7 13.8 298 10.6
2006-06-28 07:40:21 51°19.349 2°45.332 307 13.8 297 10.4
2006-06-28 07:40:25 51°19.357 2°45.311 307.1 13.7 299 11.5
2006-06-28 07:40:30 51°19.366 2°45.284 307.5 13.7 299 10.4
2006-06-28 07:40:37 51°19.379 2°45.246 307.4 13.8 299 8.5
2006-06-28 07:40:41 51°19.386 2°45.225 307.4 13.7 297 8.8
2006-06-28 07:40:46 51°19.394 2°45.198 306.5 13.7 298 10.3
2006-06-28 07:40:51 51°19.404 2°45.171 306.5 13.7 299 11.2
2006-06-28 07:40:55 51°19.411 2°45.149 306.7 14 299 9.8
2006-06-28 07:41:02 51°19.424 2°45.111 307.3 14 298 11.8
2006-06-28 07:41:07 51°19.433 2°45.083 307.3 14.1 298 13.2
2006-06-28 07:41:11 51°19.44 2°45.06 306.8 14.1 297 13.2
2006-06-28 07:41:15 51°19.447 2°45.039 306 14.1 298 12.9
2006-06-28 07:41:21 51°19.457 2°45.005 305.7 14 296 13.9
2006-06-28 07:41:26 51°19.466 2°44.977 304.8 14 296 15.2
2006-06-28 07:41:31 51°19.474 2°44.949 304 14 295 16.8
2006-06-28 07:41:37 51°19.483 2°44.915 303.3 14 294 17.5
2006-06-28 07:41:41 51°19.49 2°44.892 302.3 13.9 294 18.6
2006-06-28 07:41:47 51°19.499 2°44.859 301.9 13.8 294 19.2
2006-06-28 07:41:51 51°19.505 2°44.837 301.7 13.8 294 19.6
2006-06-28 07:41:55 51°19.512 2°44.814 301.9 13.7 294 19.8
2006-06-28 07:42:01 51°19.521 2°44.781 302.6 13.8 295 20
2006-06-28 07:42:05 51°19.528 2°44.759 303.2 13.6 295 20.1
2006-06-28 07:42:11 51°19.537 2°44.727 303.7 13.6 296 20.3
2006-06-28 07:42:17 51°19.547 2°44.694 304.1 13.7 295 20.5
2006-06-28 07:42:21 51°19.553 2°44.672 303.8 13.7 295 20.5
2006-06-28 07:42:25 51°19.56 2°44.65 303.3 13.7 294 20.6
2006-06-28 07:42:31 51°19.568 2°44.616 302.5 13.7 293 20.7
2006-06-28 07:42:37 51°19.577 2°44.583 302 13.6 293 20.9
2006-06-28 07:42:42 51°19.584 2°44.554 301.3 13.7 291 20.9
2006-06-28 07:42:47 51°19.59 2°44.526 300.5 13.7 291 20.9
2006-06-28 07:42:50 51°19.595 2°44.509 299.9 13.7 292 20.9
2006-06-28 07:42:57 51°19.605 2°44.47 300.4 13.6 293 21.1
2006-06-28 07:43:01 51°19.611 2°44.448 301.4 13.6 294 21.2
2006-06-28 07:43:05 51°19.617 2°44.427 301.8 13.6 293 21.3
2006-06-28 07:43:11 51°19.627 2°44.394 301.8 13.6 294 21.4
2006-06-28 07:43:14 51°19.631 2°44.377 301.7 13.6 293 21.5
2006-06-28 07:43:22 51°19.643 2°44.333 301.1 13.6 292 21.6
2006-06-28 07:43:27 51°19.65 2°44.304 300.5 13.6 292 21.7
2006-06-28 07:43:31 51°19.655 2°44.282 299.9 13.7 291 21.8
2006-06-28 07:43:34 51°19.659 2°44.265 299.7 13.7 292 22.1
2006-06-28 07:43:41 51°19.669 2°44.225 299.4 13.8 291 22.2
2006-06-28 07:43:46 51°19.675 2°44.196 299.1 13.8 291 22.2
2006-06-28 07:43:51 51°19.682 2°44.168 299 13.8 291 22.3
2006-06-28 07:43:57 51°19.69 2°44.133 298.6 13.9 290 22.6
2006-06-28 07:44:02 51°19.696 2°44.105 298.3 13.8 290 22.7
2006-06-28 07:44:07 51°19.703 2°44.076 298.2 13.8 290 22.8
2006-06-28 07:44:11 51°19.708 2°44.052 298 13.9 290 22.8
2006-06-28 07:44:15 51°19.713 2°44.029 297.8 13.9 290 23.1
2006-06-28 07:44:21 51°19.721 2°43.995 298 13.9 290 23.2
2006-06-28 07:44:23 51°19.724 2°43.983 298.1 13.9 291 23.3
2006-06-28 07:44:31 51°19.735 2°43.937 298.3 13.9 290 23.3
2006-06-28 07:44:37 51°19.743 2°43.903 298.6 13.8 291 23.4
2006-06-28 07:44:41 51°19.749 2°43.88 298.8 13.9 291 23.4
2006-06-28 07:44:45 51°19.754 2°43.856 299 13.9 291 23.3
2006-06-28 07:44:50 51°19.761 2°43.827 299.2 13.9 291 23.2
2006-06-28 07:44:57 51°19.77 2°43.787 299.5 13.9 291 23.1
2006-06-28 07:45:02 51°19.777 2°43.758 299.5 14 291 23
2006-06-28 07:45:06 51°19.783 2°43.735 299.5 14 291 23.1
2006-06-28 07:45:11 51°19.789 2°43.706 299.2 14 290 23.1
2006-06-28 07:45:17 51°19.798 2°43.671 298.8 14 290 23.4
2006-06-28 07:45:22 51°19.804 2°43.642 298.7 14.1 290 23.6
2006-06-28 07:45:27 51°19.811 2°43.613 298.4 14 290 23.5
2006-06-28 07:45:32 51°19.817 2°43.584 298.5 13.9 290 23.4
2006-06-28 07:45:36 51°19.822 2°43.56 298.4 13.9 289 23.2
2006-06-28 07:45:41 51°19.829 2°43.532 298.4 14 290 23.2
2006-06-28 07:45:44 51°19.833 2°43.514 297.7 13.9 288 23.5
2006-06-28 07:45:51 51°19.841 2°43.473 297.1 14 288 23.7
2006-06-28 07:45:55 51°19.846 2°43.449 296.7 14 288 24.3
2006-06-28 07:45:58 51°19.849 2°43.432 296.1 14 288 24.4
2006-06-28 07:46:07 51°19.86 2°43.379 296.7 14 288 24.1
2006-06-28 07:46:11 51°19.865 2°43.355 296.4 14 288 24.2
2006-06-28 07:46:16 51°19.872 2°43.326 296.4 13.9 289 24.1
2006-06-28 07:46:21 51°19.878 2°43.297 296.7 14 288 24.1
2006-06-28 07:46:25 51°19.883 2°43.273 296.9 14 288 24
2006-06-28 07:46:31 51°19.89 2°43.238 296.9 14 289 23.8
2006-06-28 07:46:37 51°19.898 2°43.203 297 14 289 24
2006-06-28 07:46:42 51°19.904 2°43.174 297.3 14 289 23.8
2006-06-28 07:46:47 51°19.911 2°43.144 297.5 14 290 24.6
2006-06-28 07:46:51 51°19.916 2°43.121 297.5 14.1 289 24.6
2006-06-28 07:46:57 51°19.924 2°43.086 298 14 290 24.4
2006-06-28 07:47:01 51°19.929 2°43.062 297.8 14.1 290 24.4
2006-06-28 07:47:06 51°19.936 2°43.034 297.8 14 290 24.7
2006-06-28 07:47:11 51°19.942 2°43.004 297.9 14 290 24.5
2006-06-28 07:47:17 51°19.95 2°42.969 297.5 14 290 24.6
2006-06-28 07:47:18 51°19.952 2°42.964 297.6 13.9 289 24.4
2006-06-28 07:47:27 51°19.963 2°42.911 297.5 13.9 290 24.3
2006-06-28 07:47:31 51°19.969 2°42.888 297.2 13.9 290 24.2
2006-06-28 07:47:36 51°19.976 2°42.859 297.4 14 290 24.2
2006-06-28 07:47:42 51°19.983 2°42.824 297.7 14 290 24.1
2006-06-28 07:47:47 51°19.99 2°42.795 297 13.9 289 24.1
2006-06-28 07:47:51 51°19.995 2°42.771 297.5 13.9 291 24.1
2006-06-28 07:47:55 51°20 2°42.748 297.3 13.9 290 24.1
2006-06-28 07:48:02 51°20.009 2°42.708 296.9 13.9 289 23.8
2006-06-28 07:48:07 51°20.015 2°42.678 296.8 13.9 289 23.5
2006-06-28 07:48:11 51°20.02 2°42.655 296.4 13.9 290 23
2006-06-28 07:48:16 51°20.026 2°42.626 296.7 14 289 23.7
2006-06-28 07:48:21 51°20.033 2°42.597 296.9 13.9 289 23.5
2006-06-28 07:48:27 51°20.041 2°42.562 297.2 14 290 23.2
2006-06-28 07:48:31 51°20.046 2°42.539 297.5 13.9 290 23.3
2006-06-28 07:48:37 51°20.054 2°42.504 297.4 14 289 23.1
2006-06-28 07:48:42 51°20.06 2°42.475 297 14 289 23.1
2006-06-28 07:48:47 51°20.066 2°42.446 296.7 13.9 289 22.8
2006-06-28 07:48:51 51°20.072 2°42.423 296.5 13.9 290 22.4
2006-06-28 07:48:57 51°20.079 2°42.388 296.8 13.9 289 22.3
2006-06-28 07:49:01 51°20.085 2°42.365 297.1 14 290 22.1
2006-06-28 07:49:05 51°20.09 2°42.341 297.1 14 290 21.9
2006-06-28 07:49:11 51°20.098 2°42.306 297.8 13.9 290 21.8
2006-06-28 07:49:17 51°20.106 2°42.272 297.4 13.9 290 21
2006-06-28 07:49:21 51°20.11 2°42.248 297.4 14 289 21.1
2006-06-28 07:49:25 51°20.116 2°42.225 296.8 14 288 19.5
2006-06-28 07:49:31 51°20.122 2°42.189 296.2 14 286 16.7
2006-06-28 07:49:37 51°20.129 2°42.153 294.9 14.1 286 19.6
2006-06-28 07:49:41 51°20.133 2°42.129 294.7 14 287 18.2
2006-06-28 07:49:47 51°20.141 2°42.094 295 14 289 19.5
2006-06-28 07:49:51 51°20.145 2°42.07 296.6 14 288 20
2006-06-28 07:49:55 51°20.15 2°42.047 296.7 14.1 289 18.7
2006-06-28 07:50:01 51°20.158 2°42.012 297.5 14 289 17.8
2006-06-28 07:50:06 51°20.164 2°41.982 297.8 14.1 289 15.4
2006-06-28 07:50:11 51°20.171 2°41.953 297.9 14 289 17.4
2006-06-28 07:50:15 51°20.176 2°41.93 298.2 14 289 18.7
2006-06-28 07:50:22 51°20.185 2°41.888 297.6 14.1 290 18.7
2006-06-28 07:50:27 51°20.191 2°41.859 297.7 14 290 19
2006-06-28 07:50:31 51°20.196 2°41.836 298.2 14 289 17.5
2006-06-28 07:50:36 51°20.203 2°41.806 297.7 14 290 17.1
2006-06-28 07:50:41 51°20.209 2°41.777 297.9 13.9 289 14.8
2006-06-28 07:50:47 51°20.217 2°41.742 297.3 14 289 16.8
2006-06-28 07:50:51 51°20.221 2°41.719 296.6 14 287 16.3
2006-06-28 07:50:57 51°20.227 2°41.683 294.9 13.9 285 16.9
2006-06-28 07:51:01 51°20.23 2°41.659 292.9 13.9 284 17.1
2006-06-28 07:51:05 51°20.234 2°41.634 291 14 283 16.1
2006-06-28 07:51:11 51°20.238 2°41.597 289.7 14.1 281 18.3
2006-06-28 07:51:16 51°20.242 2°41.567 289.2 13.9 282 19.6
2006-06-28 07:51:22 51°20.246 2°41.53 288.8 14 281 19.6
2006-06-28 07:51:25 51°20.249 2°41.512 287.8 14 282 21
2006-06-28 07:51:31 51°20.253 2°41.475 288.1 14 280 21.3
2006-06-28 07:51:36 51°20.257 2°41.445 287.4 14.1 281 21.4
2006-06-28 07:51:41 51°20.261 2°41.415 288.4 14 281 21.4
2006-06-28 07:51:45 51°20.264 2°41.391 288.6 13.9 282 20.9
2006-06-28 07:51:51 51°20.268 2°41.355 288.7 13.9 281 20.2
2006-06-28 07:51:57 51°20.273 2°41.318 288.9 13.9 281 19.3
2006-06-28 07:52:01 51°20.276 2°41.294 288.6 14.1 280 19.1
2006-06-28 07:52:05 51°20.279 2°41.27 288.1 13.9 282 19.1
2006-06-28 07:52:11 51°20.283 2°41.233 288.3 14 280 18.9
2006-06-28 07:52:16 51°20.288 2°41.203 288.8 14 283 19
2006-06-28 07:52:21 51°20.292 2°41.172 289.3 14.1 282 19.7
2006-06-28 07:52:27 51°20.297 2°41.136 289.8 14.1 283 20.3
2006-06-28 07:52:31 51°20.3 2°41.111 289.8 14.1 283 19.3
2006-06-28 07:52:37 51°20.306 2°41.075 290.1 14 284 19.8
2006-06-28 07:52:42 51°20.31 2°41.044 290.1 14.2 282 20.9
2006-06-28 07:52:47 51°20.314 2°41.013 289.2 14.2 282 22.3
2006-06-28 07:52:51 51°20.316 2°40.989 288.7 14.2 281 23.7
2006-06-28 07:52:55 51°20.319 2°40.964 287.5 14.2 280 25.2
2006-06-28 07:53:01 51°20.323 2°40.927 286.5 14.2 279 26.3
2006-06-28 07:53:05 51°20.325 2°40.902 285.5 14.3 278 26.8
2006-06-28 07:53:10 51°20.328 2°40.871 285.4 14.2 279 27
2006-06-28 07:53:17 51°20.332 2°40.827 285.4 14.2 278 27.1
2006-06-28 07:53:21 51°20.335 2°40.802 285.4 14.2 279 27.1
2006-06-28 07:53:25 51°20.337 2°40.778 285.6 14.2 279 27.1
2006-06-28 07:53:31 51°20.341 2°40.74 285.9 14.1 281 27
2006-06-28 07:53:37 51°20.345 2°40.703 286.6 14.2 279 27.1
2006-06-28 07:53:41 51°20.348 2°40.678 286.7 14.1 281 27
2006-06-28 07:53:47 51°20.352 2°40.641 287.6 14.1 280 26.9
2006-06-28 07:53:51 51°20.356 2°40.617 287.5 14.2 281 27.2
2006-06-28 07:53:57 51°20.36 2°40.58 287.9 14.1 282 27.2
2006-06-28 07:54:01 51°20.363 2°40.556 288 14.1 280 27.3
2006-06-28 07:54:07 51°20.367 2°40.519 287.6 14.1 281 27.2
2006-06-28 07:54:11 51°20.37 2°40.494 287.6 14.2 280 27
2006-06-28 07:54:17 51°20.374 2°40.458 287.1 14.1 281 26.8
2006-06-28 07:54:22 51°20.377 2°40.427 287.4 14.1 280 26.8
2006-06-28 07:54:27 51°20.381 2°40.396 287.4 14.1 280 26.6
2006-06-28 07:54:31 51°20.384 2°40.371 287.2 14.1 280 26.2
2006-06-28 07:54:37 51°20.388 2°40.335 287.3 14.1 280 26.3
2006-06-28 07:54:42 51°20.391 2°40.304 287.4 14.1 280 26.2
2006-06-28 07:54:47 51°20.395 2°40.273 286.8 14.1 281 26.2
2006-06-28 07:54:51 51°20.398 2°40.249 286.8 14 280 26
2006-06-28 07:54:56 51°20.401 2°40.218 286.6 14 279 26.2
2006-06-28 07:55:02 51°20.404 2°40.181 285.6 14 278 26.1
2006-06-28 07:55:07 51°20.407 2°40.151 285.1 14 279 26.1
2006-06-28 07:55:11 51°20.409 2°40.126 284.9 14 279 26.3
2006-06-28 07:55:17 51°20.413 2°40.089 284.8 14 279 26.1
2006-06-28 07:55:21 51°20.415 2°40.065 284.7 14 278 26.1
2006-06-28 07:55:27 51°20.418 2°40.028 284.5 14 278 26.3
2006-06-28 07:55:32 51°20.422 2°39.997 284.2 14 278 26
2006-06-28 07:55:37 51°20.424 2°39.967 284.6 14 279 26.2
2006-06-28 07:55:41 51°20.426 2°39.942 284.5 14 278 26
2006-06-28 07:55:47 51°20.43 2°39.905 283.8 14 278 26
2006-06-28 07:55:52 51°20.432 2°39.874 284.1 14 278 25.9
2006-06-28 07:55:57 51°20.435 2°39.844 283.8 14 278 26
2006-06-28 07:56:01 51°20.436 2°39.819 283.7 14.1 277 25.6
2006-06-28 07:56:06 51°20.44 2°39.788 283.7 14.1 279 25.4
2006-06-28 07:56:12 51°20.443 2°39.75 284.3 14.1 278 25.3
2006-06-28 07:56:17 51°20.446 2°39.72 284.9 14.1 279 25.2
2006-06-28 07:56:21 51°20.449 2°39.695 285.5 14.1 279 25.1
2006-06-28 07:56:27 51°20.452 2°39.658 285.9 14.1 280 25.1
2006-06-28 07:56:31 51°20.455 2°39.634 285.9 14.1 279 25
2006-06-28 07:56:37 51°20.459 2°39.597 285.8 14.1 279 24.9
2006-06-28 07:56:42 51°20.462 2°39.566 285.4 14.1 280 24.8
2006-06-28 07:56:47 51°20.465 2°39.535 285.2 14.1 278 24.6
2006-06-28 07:56:51 51°20.467 2°39.51 285.1 14.1 279 24.3
2006-06-28 07:56:56 51°20.47 2°39.479 284.9 14.2 278 24.1
2006-06-28 07:57:01 51°20.473 2°39.448 284.9 14.2 279 24.2
2006-06-28 07:57:07 51°20.476 2°39.411 284.7 14.1 278 24
2006-06-28 07:57:11 51°20.478 2°39.386 284.8 14.1 279 23.8
2006-06-28 07:57:17 51°20.482 2°39.349 284.8 14.2 278 23.4
2006-06-28 07:57:22 51°20.485 2°39.318 284.8 14.1 279 23.3
2006-06-28 07:57:27 51°20.487 2°39.287 284.6 14.1 279 23.4
2006-06-28 07:57:32 51°20.49 2°39.255 284.1 14.2 278 23.5
2006-06-28 07:57:37 51°20.493 2°39.225 284.5 14.2 279 23.7
2006-06-28 07:57:42 51°20.496 2°39.193 285.1 14.2 278 23.5
2006-06-28 07:57:47 51°20.5 2°39.163 285 14.2 279 23.7
2006-06-28 07:57:51 51°20.502 2°39.138 285.9 14.2 279 23.7
2006-06-28 07:57:57 51°20.506 2°39.101 285.6 14.3 279 23.6
2006-06-28 07:58:01 51°20.508 2°39.075 285.9 14.3 279 23.4
2006-06-28 07:58:07 51°20.512 2°39.038 285.9 14.3 279 23.6
2006-06-28 07:58:12 51°20.515 2°39.006 285.2 14.2 278 23.6
2006-06-28 07:58:17 51°20.518 2°38.976 284.4 14.3 278 23.4
2006-06-28 07:58:21 51°20.52 2°38.951 284.5 14.3 278 23.4
2006-06-28 07:58:26 51°20.523 2°38.919 284.5 14.2 278 23.3
2006-06-28 07:58:32 51°20.526 2°38.882 284.6 14.2 278 23.6
2006-06-28 07:58:37 51°20.53 2°38.85 284.6 14.3 278 23.3
2006-06-28 07:58:42 51°20.532 2°38.819 284.6 14.3 278 23.1
2006-06-28 07:58:47 51°20.535 2°38.788 284.8 14.3 278 22.2
2006-06-28 07:58:51 51°20.538 2°38.763 285.1 14.3 280 22.4
2006-06-28 07:58:57 51°20.541 2°38.725 284.8 14.4 278 22.7
2006-06-28 07:59:02 51°20.544 2°38.693 285 14.3 279 22.8
2006-06-28 07:59:07 51°20.547 2°38.662 284.8 14.4 279 22.6
2006-06-28 07:59:11 51°20.549 2°38.637 285.2 14.3 279 22.2
2006-06-28 07:59:17 51°20.553 2°38.599 285.1 14.4 278 22.6
2006-06-28 07:59:22 51°20.557 2°38.568 285.5 14.3 280 22.6
2006-06-28 07:59:27 51°20.56 2°38.537 285.5 14.4 279 22.4
2006-06-28 07:59:31 51°20.563 2°38.512 285.9 14.4 281 22
2006-06-28 07:59:37 51°20.567 2°38.474 286.1 14.3 280 22.1
2006-06-28 07:59:41 51°20.57 2°38.449 286.1 14.4 280 22.9
2006-06-28 07:59:47 51°20.574 2°38.411 286.1 14.5 279 22.5
2006-06-28 07:59:50 51°20.576 2°38.392 285.8 14.4 280 22.2
2006-06-28 07:59:57 51°20.58 2°38.348 286 14.3 280 22
2006-06-28 08:00:01 51°20.583 2°38.323 285.3 14.4 278 22.2
2006-06-28 08:00:07 51°20.586 2°38.286 285.2 14.4 278 22.3
2006-06-28 08:00:11 51°20.589 2°38.261 284.5 14.4 279 21.2
2006-06-28 08:00:17 51°20.592 2°38.223 284.5 14.4 279 22.4
2006-06-28 08:00:22 51°20.595 2°38.191 283.8 14.4 279 22.7
2006-06-28 08:00:26 51°20.597 2°38.166 284.1 14.4 278 22.2
2006-06-28 08:00:31 51°20.601 2°38.134 284.6 14.4 279 21.6
2006-06-28 08:00:37 51°20.604 2°38.097 285.1 14.4 280 20.7
2006-06-28 08:00:41 51°20.607 2°38.072 285.5 14.4 279 21.7
2006-06-28 08:00:47 51°20.611 2°38.034 285.2 14.4 279 21.6
2006-06-28 08:00:52 51°20.614 2°38.002 284.9 14.4 279 22.5
2006-06-28 08:00:57 51°20.617 2°37.971 285 14.5 278 21.6
2006-06-28 08:01:02 51°20.62 2°37.939 285 14.5 279 21.2
2006-06-28 08:01:06 51°20.623 2°37.914 285.2 14.5 280 22.2
2006-06-28 08:01:11 51°20.626 2°37.882 285.3 14.5 280 22.4
2006-06-28 08:01:17 51°20.63 2°37.845 285.6 14.4 280 22.4
2006-06-28 08:01:22 51°20.634 2°37.813 286 14.4 280 22.3
2006-06-28 08:01:27 51°20.637 2°37.782 286.3 14.4 281 22.1
2006-06-28 08:01:31 51°20.64 2°37.757 286.3 14.4 280 22
2006-06-28 08:01:37 51°20.645 2°37.719 285.6 14.4 280 20.8
2006-06-28 08:01:42 51°20.648 2°37.688 285.9 14.4 279 22.4
2006-06-28 08:01:47 51°20.651 2°37.656 285.6 14.4 280 22.3
2006-06-28 08:01:51 51°20.654 2°37.631 285.8 14.4 280 22
2006-06-28 08:01:57 51°20.658 2°37.593 285.7 14.4 279 21.7
2006-06-28 08:02:02 51°20.661 2°37.562 285.5 14.4 280 21
2006-06-28 08:02:07 51°20.664 2°37.531 285.6 14.4 280 22.3
2006-06-28 08:02:11 51°20.667 2°37.506 285.2 14.4 280 21.8
2006-06-28 08:02:17 51°20.671 2°37.468 285.4 14.4 279 21
2006-06-28 08:02:21 51°20.674 2°37.443 285.3 14.4 279 21.9
2006-06-28 08:02:27 51°20.678 2°37.405 285 14.4 280 21.9
2006-06-28 08:02:30 51°20.679 2°37.386 285.1 14.4 278 21.9
2006-06-28 08:02:37 51°20.684 2°37.341 284.8 14.5 279 21.5
2006-06-28 08:02:42 51°20.687 2°37.31 285.2 14.4 279 21.7
2006-06-28 08:02:47 51°20.69 2°37.278 285.6 14.4 280 22.1
2006-06-28 08:02:52 51°20.694 2°37.247 285.7 14.4 279 20.9
2006-06-28 08:02:57 51°20.697 2°37.215 285.9 14.4 279 21.4
2006-06-28 08:03:01 51°20.7 2°37.19 285.9 14.5 281 22.4
2006-06-28 08:03:07 51°20.703 2°37.152 285.9 14.5 279 22.5
2006-06-28 08:03:10 51°20.706 2°37.133 285.6 14.5 280 21.8
2006-06-28 08:03:17 51°20.71 2°37.089 285.8 14.4 280 21.3
2006-06-28 08:03:22 51°20.714 2°37.058 285.6 14.4 281 21
2006-06-28 08:03:27 51°20.717 2°37.027 285.9 14.4 279 21.1
2006-06-28 08:03:31 51°20.72 2°37.002 285.7 14.4 281 21.3
2006-06-28 08:03:36 51°20.723 2°36.97 285.6 14.3 280 21.3
2006-06-28 08:03:41 51°20.726 2°36.939 285.3 14.4 278 20.7
2006-06-28 08:03:47 51°20.73 2°36.901 284.5 14.4 280 20.2
2006-06-28 08:03:51 51°20.732 2°36.876 285 14.4 278 20.8
2006-06-28 08:03:56 51°20.735 2°36.844 284.9 14.4 279 20.8
2006-06-28 08:04:02 51°20.738 2°36.806 284.4 14.5 278 19.5
2006-06-28 08:04:07 51°20.742 2°36.775 283.9 14.5 279 20.1
2006-06-28 08:04:10 51°20.744 2°36.756 284.5 14.4 278 20.8
2006-06-28 08:04:17 51°20.748 2°36.712 284.9 14.4 278 20.1
2006-06-28 08:04:21 51°20.75 2°36.687 285.1 14.4 279 20.3
2006-06-28 08:04:27 51°20.754 2°36.649 285.8 14.3 278 20.3
2006-06-28 08:04:32 51°20.757 2°36.618 286 14.3 280 19.7
2006-06-28 08:04:37 51°20.761 2°36.587 285.9 14.4 279 20.7
2006-06-28 08:04:41 51°20.763 2°36.562 286.3 14.3 279 20.1
2006-06-28 08:04:47 51°20.767 2°36.525 286.4 14.3 279 20.2
2006-06-28 08:04:52 51°20.77 2°36.493 286.6 14.3 280 20.7
2006-06-28 08:04:57 51°20.774 2°36.462 286.3 14.3 280 20.8
2006-06-28 08:05:01 51°20.776 2°36.437 286.4 14.3 279 19.8
2006-06-28 08:05:07 51°20.78 2°36.4 285.8 14.3 278 20.9
2006-06-28 08:05:12 51°20.784 2°36.368 286.2 14.3 280 20.7
2006-06-28 08:05:16 51°20.786 2°36.343 286.7 14.3 280 20.6
2006-06-28 08:05:22 51°20.79 2°36.306 286.3 14.4 280 20
2006-06-28 08:05:26 51°20.793 2°36.281 286.6 14.3 280 20.6
2006-06-28 08:05:31 51°20.797 2°36.25 286.2 14.3 280 21.6
2006-06-28 08:05:37 51°20.8 2°36.213 285.9 14.3 279 21.4
2006-06-28 08:05:42 51°20.804 2°36.182 285.6 14.3 280 20.5
2006-06-28 08:05:47 51°20.807 2°36.15 285.6 14.3 279 22
2006-06-28 08:05:51 51°20.81 2°36.125 285.3 14.3 280 23.3
2006-06-28 08:05:56 51°20.812 2°36.094 285.1 14.4 279 23.7
2006-06-28 08:06:02 51°20.816 2°36.057 285.2 14.3 280 23.5
2006-06-28 08:06:07 51°20.819 2°36.025 284.7 14.3 280 21.9
2006-06-28 08:06:11 51°20.821 2°36 283.8 14.3 278 23.4
2006-06-28 08:06:17 51°20.824 2°35.962 283.8 14.4 278 24.2
2006-06-28 08:06:22 51°20.827 2°35.931 283.9 14.4 278 25.3
2006-06-28 08:06:27 51°20.83 2°35.9 283.9 14.4 278 25.1
2006-06-28 08:06:31 51°20.833 2°35.874 284.5 14.3 279 24
2006-06-28 08:06:37 51°20.836 2°35.837 284.7 14.4 277 21.1
2006-06-28 08:06:41 51°20.838 2°35.812 284.3 14.4 278 23.3
2006-06-28 08:06:47 51°20.841 2°35.774 284 14.4 277 24.9
2006-06-28 08:06:51 51°20.843 2°35.749 284 14.3 279 25.8
2006-06-28 08:06:57 51°20.847 2°35.711 284.5 14.4 278 26.4
2006-06-28 08:07:01 51°20.85 2°35.686 284.9 14.4 280 27.2
2006-06-28 08:07:05 51°20.853 2°35.661 285.6 14.3 280 27.7
2006-06-28 08:07:10 51°20.856 2°35.63 286.6 14.2 280 27
2006-06-28 08:07:15 51°20.859 2°35.599 285.9 14.4 279 25
2006-06-28 08:07:22 51°20.863 2°35.555 285.6 14.4 279 25.3
2006-06-28 08:07:26 51°20.865 2°35.53 285.4 14.4 278 26.4
2006-06-28 08:07:30 51°20.868 2°35.505 284.9 14.3 279 27.6
2006-06-28 08:07:37 51°20.872 2°35.46 284.4 14.4 277 28.5
2006-06-28 08:07:41 51°20.874 2°35.436 284.2 14.3 278 29
2006-06-28 08:07:47 51°20.877 2°35.398 284.2 14.4 278 29.4
2006-06-28 08:07:51 51°20.88 2°35.372 284.3 14.4 279 29.4
2006-06-28 08:07:57 51°20.883 2°35.335 285.3 14.3 279 29.4
2006-06-28 08:08:02 51°20.887 2°35.304 285.4 14.4 279 26.1
2006-06-28 08:08:07 51°20.89 2°35.272 285.6 14.4 280 27.8
2006-06-28 08:08:11 51°20.893 2°35.247 285.7 14.4 278 29
2006-06-28 08:08:15 51°20.895 2°35.222 285.7 14.3 280 29.3
2006-06-28 08:08:22 51°20.899 2°35.177 285.6 14.5 278 29.9
2006-06-28 08:08:27 51°20.903 2°35.146 285.2 14.5 279 30.5
2006-06-28 08:08:31 51°20.905 2°35.121 285.4 14.5 278 29.3
2006-06-28 08:08:37 51°20.909 2°35.083 284.6 14.5 279 30.1
2006-06-28 08:08:42 51°20.912 2°35.051 285.5 14.5 278 30.3
2006-06-28 08:08:47 51°20.915 2°35.019 285 14.5 279 30.5
2006-06-28 08:08:51 51°20.917 2°34.994 285.4 14.5 279 30.2
2006-06-28 08:08:57 51°20.92 2°34.956 284.5 14.6 276 30.4
2006-06-28 08:09:01 51°20.922 2°34.931 283.8 14.4 277 30.2
2006-06-28 08:09:07 51°20.925 2°34.892 283.2 14.6 275 30.1
2006-06-28 08:09:12 51°20.927 2°34.86 281.6 14.6 277 30.3
2006-06-28 08:09:17 51°20.928 2°34.828 281.7 14.5 275 30.5
2006-06-28 08:09:22 51°20.931 2°34.796 280.9 14.6 277 30.7
2006-06-28 08:09:26 51°20.933 2°34.771 281.6 14.5 277 30.6
2006-06-28 08:09:32 51°20.935 2°34.732 281.8 14.4 277 30.4
2006-06-28 08:09:37 51°20.937 2°34.701 281.9 14.5 276 30.4
2006-06-28 08:09:42 51°20.939 2°34.669 282 14.4 277 30.1
2006-06-28 08:09:46 51°20.941 2°34.643 282.3 14.4 276 30.1
2006-06-28 08:09:51 51°20.943 2°34.611 281 14.5 276 30.4
2006-06-28 08:09:55 51°20.943 2°34.586 280.8 14.6 272 30.6
2006-06-28 08:10:01 51°20.945 2°34.547 279.4 14.5 274 30.6
2006-06-28 08:10:05 51°20.946 2°34.521 278.7 14.6 272 30.2
2006-06-28 08:10:11 51°20.946 2°34.482 278 14.6 272 29.9
2006-06-28 08:10:17 51°20.948 2°34.443 277.3 14.8 272 29.7
2006-06-28 08:10:22 51°20.949 2°34.41 277.6 14.8 273 29.7
2006-06-28 08:10:26 51°20.949 2°34.384 277.9 14.9 272 29.7
2006-06-28 08:10:30 51°20.95 2°34.357 277.5 15 274 29.5
2006-06-28 08:10:37 51°20.952 2°34.311 278.2 15 274 29.6
2006-06-28 08:10:42 51°20.953 2°34.278 278.9 15 274 29.4
2006-06-28 08:10:47 51°20.955 2°34.244 279.2 15.1 272 29.4
2006-06-28 08:10:52 51°20.956 2°34.211 279.4 15 274 29.2
2006-06-28 08:10:57 51°20.958 2°34.178 279.3 15 275 29.5
2006-06-28 08:11:02 51°20.959 2°34.145 279.4 15.1 273 29.5
2006-06-28 08:11:07 51°20.96 2°34.111 279.2 15.1 274 29.6
2006-06-28 08:11:12 51°20.961 2°34.078 279.2 15 273 29.6
2006-06-28 08:11:17 51°20.962 2°34.044 278.4 15.1 273 29.5
2006-06-28 08:11:22 51°20.963 2°34.011 277.8 15.2 273 29.1
2006-06-28 08:11:27 51°20.964 2°33.978 278.7 15 273 29.4